sensor_id;sensor_type;location;lat;lon;timestamp;pressure;altitude;pressure_sealevel;temperature;humidity
59170;BME280;52474;52.236;5.114;2024-02-21T00:02:11;102144.50;;;9.03;100.00
59170;BME280;52474;52.236;5.114;2024-02-21T00:04:36;102153.72;;;9.12;100.00
59170;BME280;52474;52.236;5.114;2024-02-21T00:07:04;102143.22;;;9.10;100.00
59170;BME280;52474;52.236;5.114;2024-02-21T00:09:30;102143.06;;;9.13;100.00
59170;BME280;52474;52.236;5.114;2024-02-21T00:11:55;102139.84;;;9.08;100.00
59170;BME280;52474;52.236;5.114;2024-02-21T00:14:21;102108.41;;;8.88;100.00
59170;BME280;52474;52.236;5.114;2024-02-21T00:16:47;102134.38;;;9.11;100.00
59170;BME280;52474;52.236;5.114;2024-02-21T00:19:13;102136.06;;;9.12;100.00
59170;BME280;52474;52.236;5.114;2024-02-21T00:21:40;102149.00;;;9.17;100.00
59170;BME280;52474;52.236;5.114;2024-02-21T00:24:06;102141.44;;;9.11;100.00
59170;BME280;52474;52.236;5.114;2024-02-21T00:26:31;102111.03;;;9.03;100.00
59170;BME280;52474;52.236;5.114;2024-02-21T00:28:57;102142.56;;;9.07;100.00
59170;BME280;52474;52.236;5.114;2024-02-21T00:31:23;102147.56;;;9.11;100.00
59170;BME280;52474;52.236;5.114;2024-02-21T00:33:48;102150.22;;;9.11;100.00
59170;BME280;52474;52.236;5.114;2024-02-21T00:36:14;102128.50;;;9.06;100.00
59170;BME280;52474;52.236;5.114;2024-02-21T00:38:40;102142.19;;;9.13;100.00
59170;BME280;52474;52.236;5.114;2024-02-21T00:41:06;102121.16;;;9.11;100.00
59170;BME280;52474;52.236;5.114;2024-02-21T00:43:31;102129.66;;;9.16;100.00
59170;BME280;52474;52.236;5.114;2024-02-21T00:45:57;102110.59;;;8.95;100.00
59170;BME280;52474;52.236;5.114;2024-02-21T00:48:23;102124.06;;;9.07;100.00
59170;BME280;52474;52.236;5.114;2024-02-21T00:50:48;102114.88;;;8.98;100.00
59170;BME280;52474;52.236;5.114;2024-02-21T00:53:14;102118.47;;;8.97;100.00
59170;BME280;52474;52.236;5.114;2024-02-21T00:55:40;102107.56;;;8.87;100.00
59170;BME280;52474;52.236;5.114;2024-02-21T00:58:06;102123.06;;;8.93;100.00
59170;BME280;52474;52.236;5.114;2024-02-21T01:00:31;102135.75;;;9.02;100.00
59170;BME280;52474;52.236;5.114;2024-02-21T01:02:57;102109.56;;;8.98;100.00
59170;BME280;52474;52.236;5.114;2024-02-21T01:05:23;102128.03;;;9.14;100.00
59170;BME280;52474;52.236;5.114;2024-02-21T01:07:48;102123.59;;;9.14;100.00
59170;BME280;52474;52.236;5.114;2024-02-21T01:10:14;102108.28;;;9.05;100.00
59170;BME280;52474;52.236;5.114;2024-02-21T01:12:40;102120.97;;;9.14;100.00
59170;BME280;52474;52.236;5.114;2024-02-21T01:15:05;102119.75;;;9.20;100.00
59170;BME280;52474;52.236;5.114;2024-02-21T01:17:31;102113.78;;;9.16;100.00
59170;BME280;52474;52.236;5.114;2024-02-21T01:19:57;102110.88;;;9.21;100.00
59170;BME280;52474;52.236;5.114;2024-02-21T01:22:22;102102.06;;;9.20;100.00
59170;BME280;52474;52.236;5.114;2024-02-21T01:24:48;102090.94;;;9.15;100.00
59170;BME280;52474;52.236;5.114;2024-02-21T01:27:13;102096.97;;;9.17;100.00
59170;BME280;52474;52.236;5.114;2024-02-21T01:29:39;102095.59;;;9.26;100.00
59170;BME280;52474;52.236;5.114;2024-02-21T01:32:05;102091.50;;;9.20;100.00
59170;BME280;52474;52.236;5.114;2024-02-21T01:34:31;102063.09;;;9.10;100.00
59170;BME280;52474;52.236;5.114;2024-02-21T01:36:56;102073.13;;;9.19;100.00
59170;BME280;52474;52.236;5.114;2024-02-21T01:39:22;102071.31;;;9.19;100.00
59170;BME280;52474;52.236;5.114;2024-02-21T01:41:47;102050.44;;;9.15;100.00
59170;BME280;52474;52.236;5.114;2024-02-21T01:44:13;102047.44;;;9.21;100.00
59170;BME280;52474;52.236;5.114;2024-02-21T01:46:39;102051.84;;;9.20;100.00
59170;BME280;52474;52.236;5.114;2024-02-21T01:49:05;102046.00;;;9.15;100.00
59170;BME280;52474;52.236;5.114;2024-02-21T01:51:31;102045.84;;;9.18;100.00
59170;BME280;52474;52.236;5.114;2024-02-21T01:53:58;102019.28;;;9.06;100.00
59170;BME280;52474;52.236;5.114;2024-02-21T01:56:24;102065.69;;;9.26;100.00
59170;BME280;52474;52.236;5.114;2024-02-21T01:58:50;102058.78;;;9.23;100.00
59170;BME280;52474;52.236;5.114;2024-02-21T02:01:17;102054.41;;;9.22;100.00
59170;BME280;52474;52.236;5.114;2024-02-21T02:03:45;102038.47;;;9.09;100.00
59170;BME280;52474;52.236;5.114;2024-02-21T02:06:11;102050.09;;;9.21;100.00
59170;BME280;52474;52.236;5.114;2024-02-21T02:08:36;102040.16;;;9.24;100.00
59170;BME280;52474;52.236;5.114;2024-02-21T02:11:02;102040.94;;;9.27;100.00
59170;BME280;52474;52.236;5.114;2024-02-21T02:13:28;102042.81;;;9.24;100.00
59170;BME280;52474;52.236;5.114;2024-02-21T02:15:54;102039.13;;;9.27;100.00
59170;BME280;52474;52.236;5.114;2024-02-21T02:18:20;102037.44;;;9.26;100.00
59170;BME280;52474;52.236;5.114;2024-02-21T02:20:46;102043.50;;;9.28;100.00
59170;BME280;52474;52.236;5.114;2024-02-21T02:23:31;102043.38;;;9.30;100.00
59170;BME280;52474;52.236;5.114;2024-02-21T02:25:57;102040.72;;;9.30;100.00
59170;BME280;52474;52.236;5.114;2024-02-21T02:28:23;102023.53;;;9.22;100.00
59170;BME280;52474;52.236;5.114;2024-02-21T02:30:49;102032.91;;;9.28;100.00
59170;BME280;52474;52.236;5.114;2024-02-21T02:33:15;102026.47;;;9.32;100.00
59170;BME280;52474;52.236;5.114;2024-02-21T02:35:43;102023.19;;;9.29;100.00
59170;BME280;52474;52.236;5.114;2024-02-21T02:38:09;102019.78;;;9.27;100.00
59170;BME280;52474;52.236;5.114;2024-02-21T02:40:38;102017.91;;;9.29;100.00
59170;BME280;52474;52.236;5.114;2024-02-21T02:43:04;102018.47;;;9.34;100.00
59170;BME280;52474;52.236;5.114;2024-02-21T02:45:29;102002.41;;;9.22;100.00
59170;BME280;52474;52.236;5.114;2024-02-21T02:47:56;102004.56;;;9.30;100.00
59170;BME280;52474;52.236;5.114;2024-02-21T02:50:25;102012.91;;;9.38;100.00
59170;BME280;52474;52.236;5.114;2024-02-21T02:52:54;101994.00;;;9.30;100.00
59170;BME280;52474;52.236;5.114;2024-02-21T02:55:20;101995.91;;;9.28;100.00
59170;BME280;52474;52.236;5.114;2024-02-21T02:57:46;101997.50;;;9.31;100.00
59170;BME280;52474;52.236;5.114;2024-02-21T03:00:13;101994.31;;;9.26;100.00
59170;BME280;52474;52.236;5.114;2024-02-21T03:02:40;101993.28;;;9.28;100.00
59170;BME280;52474;52.236;5.114;2024-02-21T03:05:21;101999.19;;;9.32;100.00
59170;BME280;52474;52.236;5.114;2024-02-21T03:07:48;101993.56;;;9.38;100.00
59170;BME280;52474;52.236;5.114;2024-02-21T03:10:17;101981.47;;;9.34;100.00
59170;BME280;52474;52.236;5.114;2024-02-21T03:12:43;101991.63;;;9.40;100.00
59170;BME280;52474;52.236;5.114;2024-02-21T03:15:09;101982.78;;;9.41;100.00
59170;BME280;52474;52.236;5.114;2024-02-21T03:17:35;101974.44;;;9.33;100.00
59170;BME280;52474;52.236;5.114;2024-02-21T03:20:04;101963.50;;;9.39;100.00
59170;BME280;52474;52.236;5.114;2024-02-21T03:22:39;101956.53;;;9.38;100.00
59170;BME280;52474;52.236;5.114;2024-02-21T03:25:05;101947.16;;;9.32;100.00
59170;BME280;52474;52.236;5.114;2024-02-21T03:27:32;101947.38;;;9.29;100.00
59170;BME280;52474;52.236;5.114;2024-02-21T03:29:58;101939.16;;;9.34;100.00
59170;BME280;52474;52.236;5.114;2024-02-21T03:32:24;101935.28;;;9.25;100.00
59170;BME280;52474;52.236;5.114;2024-02-21T03:34:49;101931.59;;;9.28;100.00
59170;BME280;52474;52.236;5.114;2024-02-21T03:37:15;101922.94;;;9.26;100.00
59170;BME280;52474;52.236;5.114;2024-02-21T03:39:41;101912.53;;;9.22;100.00
59170;BME280;52474;52.236;5.114;2024-02-21T03:42:07;101920.19;;;9.27;100.00
59170;BME280;52474;52.236;5.114;2024-02-21T03:44:33;101925.75;;;9.22;100.00
59170;BME280;52474;52.236;5.114;2024-02-21T03:46:59;101915.28;;;9.21;100.00
59170;BME280;52474;52.236;5.114;2024-02-21T03:49:25;101933.31;;;9.29;100.00
59170;BME280;52474;52.236;5.114;2024-02-21T03:51:51;101936.50;;;9.34;100.00
59170;BME280;52474;52.236;5.114;2024-02-21T03:54:18;101923.28;;;9.34;100.00
59170;BME280;52474;52.236;5.114;2024-02-21T03:56:43;101918.09;;;9.32;100.00
59170;BME280;52474;52.236;5.114;2024-02-21T03:59:09;101913.28;;;9.24;100.00
59170;BME280;52474;52.236;5.114;2024-02-21T04:01:35;101918.28;;;9.29;100.00
59170;BME280;52474;52.236;5.114;2024-02-21T04:04:01;101906.41;;;9.22;100.00
59170;BME280;52474;52.236;5.114;2024-02-21T04:06:27;101922.81;;;9.27;100.00
59170;BME280;52474;52.236;5.114;2024-02-21T04:08:53;101910.34;;;9.29;100.00
59170;BME280;52474;52.236;5.114;2024-02-21T04:11:18;101907.53;;;9.18;100.00
59170;BME280;52474;52.236;5.114;2024-02-21T04:13:45;101882.91;;;9.17;100.00
59170;BME280;52474;52.236;5.114;2024-02-21T04:16:10;101899.22;;;9.24;100.00
59170;BME280;52474;52.236;5.114;2024-02-21T04:18:36;101894.69;;;9.26;100.00
59170;BME280;52474;52.236;5.114;2024-02-21T04:21:02;101903.47;;;9.27;100.00
59170;BME280;52474;52.236;5.114;2024-02-21T04:23:27;101903.38;;;9.28;100.00
59170;BME280;52474;52.236;5.114;2024-02-21T04:25:53;101895.75;;;9.23;100.00
59170;BME280;52474;52.236;5.114;2024-02-21T04:28:19;101884.50;;;9.20;100.00
59170;BME280;52474;52.236;5.114;2024-02-21T04:30:44;101905.16;;;9.28;100.00
59170;BME280;52474;52.236;5.114;2024-02-21T04:33:10;101899.88;;;9.28;100.00
59170;BME280;52474;52.236;5.114;2024-02-21T04:35:36;101893.28;;;9.20;100.00
59170;BME280;52474;52.236;5.114;2024-02-21T04:38:02;101898.19;;;9.27;100.00
59170;BME280;52474;52.236;5.114;2024-02-21T04:40:29;101890.47;;;9.23;100.00
59170;BME280;52474;52.236;5.114;2024-02-21T04:42:54;101880.53;;;9.13;100.00
59170;BME280;52474;52.236;5.114;2024-02-21T04:45:20;101877.63;;;9.03;100.00
59170;BME280;52474;52.236;5.114;2024-02-21T04:47:46;101876.69;;;9.04;100.00
59170;BME280;52474;52.236;5.114;2024-02-21T04:50:11;101878.03;;;8.97;100.00
59170;BME280;52474;52.236;5.114;2024-02-21T04:52:38;101859.53;;;8.97;100.00
59170;BME280;52474;52.236;5.114;2024-02-21T04:55:04;101867.53;;;8.95;100.00
59170;BME280;52474;52.236;5.114;2024-02-21T04:57:29;101876.97;;;8.99;100.00
59170;BME280;52474;52.236;5.114;2024-02-21T04:59:55;101867.38;;;8.98;100.00
59170;BME280;52474;52.236;5.114;2024-02-21T05:02:21;101866.59;;;8.96;100.00
59170;BME280;52474;52.236;5.114;2024-02-21T05:04:50;101874.91;;;9.05;100.00
59170;BME280;52474;52.236;5.114;2024-02-21T05:07:16;101859.59;;;8.95;100.00
59170;BME280;52474;52.236;5.114;2024-02-21T05:09:42;101866.41;;;8.99;100.00
59170;BME280;52474;52.236;5.114;2024-02-21T05:12:08;101860.66;;;8.93;100.00
59170;BME280;52474;52.236;5.114;2024-02-21T05:14:34;101850.75;;;8.96;100.00
59170;BME280;52474;52.236;5.114;2024-02-21T05:16:59;101850.94;;;8.93;100.00
59170;BME280;52474;52.236;5.114;2024-02-21T05:19:25;101854.44;;;8.94;100.00
59170;BME280;52474;52.236;5.114;2024-02-21T05:21:51;101839.44;;;8.94;100.00
59170;BME280;52474;52.236;5.114;2024-02-21T05:24:17;101843.19;;;8.90;100.00
59170;BME280;52474;52.236;5.114;2024-02-21T05:26:42;101832.91;;;8.86;100.00
59170;BME280;52474;52.236;5.114;2024-02-21T05:29:08;101818.03;;;8.85;100.00
59170;BME280;52474;52.236;5.114;2024-02-21T05:34:19;101817.81;;;8.88;100.00
59170;BME280;52474;52.236;5.114;2024-02-21T05:36:45;101804.53;;;8.89;100.00
59170;BME280;52474;52.236;5.114;2024-02-21T05:39:11;101806.06;;;8.79;100.00
59170;BME280;52474;52.236;5.114;2024-02-21T05:41:37;101803.84;;;8.86;100.00
59170;BME280;52474;52.236;5.114;2024-02-21T05:44:03;101788.22;;;8.82;100.00
59170;BME280;52474;52.236;5.114;2024-02-21T05:46:28;101776.59;;;8.85;100.00
59170;BME280;52474;52.236;5.114;2024-02-21T05:48:54;101787.94;;;8.87;100.00
59170;BME280;52474;52.236;5.114;2024-02-21T05:51:20;101766.16;;;8.69;100.00
59170;BME280;52474;52.236;5.114;2024-02-21T05:53:46;101790.66;;;8.86;100.00
59170;BME280;52474;52.236;5.114;2024-02-21T05:56:12;101772.75;;;8.76;100.00
59170;BME280;52474;52.236;5.114;2024-02-21T05:58:38;101770.97;;;8.77;100.00
59170;BME280;52474;52.236;5.114;2024-02-21T06:01:04;101771.81;;;8.77;100.00
59170;BME280;52474;52.236;5.114;2024-02-21T06:03:32;101768.59;;;8.72;100.00
59170;BME280;52474;52.236;5.114;2024-02-21T06:05:59;101771.81;;;8.77;100.00
59170;BME280;52474;52.236;5.114;2024-02-21T06:08:24;101772.75;;;8.76;100.00
59170;BME280;52474;52.236;5.114;2024-02-21T06:10:50;101767.00;;;8.84;100.00
59170;BME280;52474;52.236;5.114;2024-02-21T06:13:28;101758.81;;;8.74;100.00
59170;BME280;52474;52.236;5.114;2024-02-21T06:15:54;101774.91;;;8.84;100.00
59170;BME280;52474;52.236;5.114;2024-02-21T06:18:20;101766.88;;;8.86;100.00
59170;BME280;52474;52.236;5.114;2024-02-21T06:20:46;101747.56;;;8.71;100.00
59170;BME280;52474;52.236;5.114;2024-02-21T06:23:14;101761.25;;;8.77;100.00
59170;BME280;52474;52.236;5.114;2024-02-21T06:25:41;101774.06;;;8.84;100.00
59170;BME280;52474;52.236;5.114;2024-02-21T06:28:06;101764.53;;;8.81;100.00
59170;BME280;52474;52.236;5.114;2024-02-21T06:30:33;101786.31;;;8.85;100.00
59170;BME280;52474;52.236;5.114;2024-02-21T06:32:59;101786.41;;;8.83;100.00
59170;BME280;52474;52.236;5.114;2024-02-21T06:35:25;101781.69;;;8.88;100.00
59170;BME280;52474;52.236;5.114;2024-02-21T06:37:51;101783.97;;;8.80;100.00
59170;BME280;52474;52.236;5.114;2024-02-21T06:40:23;101784.63;;;8.84;100.00
59170;BME280;52474;52.236;5.114;2024-02-21T06:42:49;101768.13;;;8.80;100.00
59170;BME280;52474;52.236;5.114;2024-02-21T06:45:15;101758.59;;;8.77;100.00
59170;BME280;52474;52.236;5.114;2024-02-21T06:47:41;101782.00;;;8.84;100.00
59170;BME280;52474;52.236;5.114;2024-02-21T06:50:08;101773.03;;;8.86;100.00
59170;BME280;52474;52.236;5.114;2024-02-21T06:52:36;101767.06;;;8.82;100.00
59170;BME280;52474;52.236;5.114;2024-02-21T06:55:02;101768.38;;;8.90;100.00
59170;BME280;52474;52.236;5.114;2024-02-21T06:57:29;101758.22;;;8.84;100.00
59170;BME280;52474;52.236;5.114;2024-02-21T06:59:54;101745.84;;;8.84;100.00
59170;BME280;52474;52.236;5.114;2024-02-21T07:02:20;101750.19;;;8.85;100.00
59170;BME280;52474;52.236;5.114;2024-02-21T07:04:46;101730.78;;;8.72;100.00
59170;BME280;52474;52.236;5.114;2024-02-21T07:07:12;101731.97;;;8.80;100.00
59170;BME280;52474;52.236;5.114;2024-02-21T07:09:38;101741.50;;;8.83;100.00
59170;BME280;52474;52.236;5.114;2024-02-21T07:12:04;101723.91;;;8.69;100.00
59170;BME280;52474;52.236;5.114;2024-02-21T07:14:32;101733.31;;;8.73;100.00
59170;BME280;52474;52.236;5.114;2024-02-21T07:16:58;101738.56;;;8.88;100.00
59170;BME280;52474;52.236;5.114;2024-02-21T07:19:23;101734.81;;;8.77;100.00
59170;BME280;52474;52.236;5.114;2024-02-21T07:21:49;101740.88;;;8.79;100.00
59170;BME280;52474;52.236;5.114;2024-02-21T07:24:15;101728.25;;;8.70;100.00
59170;BME280;52474;52.236;5.114;2024-02-21T07:26:41;101729.84;;;8.73;100.00
59170;BME280;52474;52.236;5.114;2024-02-21T07:29:08;101732.47;;;8.73;100.00
59170;BME280;52474;52.236;5.114;2024-02-21T07:31:41;101723.63;;;8.74;100.00
59170;BME280;52474;52.236;5.114;2024-02-21T07:34:07;101708.06;;;8.69;100.00
59170;BME280;52474;52.236;5.114;2024-02-21T07:36:33;101703.53;;;8.71;100.00
59170;BME280;52474;52.236;5.114;2024-02-21T07:38:58;101703.78;;;8.81;100.00
59170;BME280;52474;52.236;5.114;2024-02-21T07:41:25;101691.44;;;8.81;100.00
59170;BME280;52474;52.236;5.114;2024-02-21T07:43:51;101673.63;;;8.71;100.00
59170;BME280;52474;52.236;5.114;2024-02-21T07:46:18;101693.78;;;8.86;100.00
59170;BME280;52474;52.236;5.114;2024-02-21T07:48:45;101685.09;;;8.84;100.00
59170;BME280;52474;52.236;5.114;2024-02-21T07:51:11;101656.63;;;8.75;100.00
59170;BME280;52474;52.236;5.114;2024-02-21T07:53:38;101687.34;;;8.90;100.00
59170;BME280;52474;52.236;5.114;2024-02-21T07:56:04;101662.81;;;8.88;100.00
59170;BME280;52474;52.236;5.114;2024-02-21T07:58:30;101681.25;;;9.02;100.00
59170;BME280;52474;52.236;5.114;2024-02-21T08:00:58;101676.72;;;9.05;100.00
59170;BME280;52474;52.236;5.114;2024-02-21T08:03:24;101675.75;;;9.06;100.00
59170;BME280;52474;52.236;5.114;2024-02-21T08:05:51;101671.22;;;9.08;100.00
59170;BME280;52474;52.236;5.114;2024-02-21T08:08:16;101668.78;;;9.05;100.00
59170;BME280;52474;52.236;5.114;2024-02-21T08:10:45;101666.47;;;9.13;100.00
59170;BME280;52474;52.236;5.114;2024-02-21T08:13:11;101645.63;;;8.95;100.00
59170;BME280;52474;52.236;5.114;2024-02-21T08:15:37;101671.88;;;9.11;100.00
59170;BME280;52474;52.236;5.114;2024-02-21T08:18:05;101675.75;;;9.06;100.00
59170;BME280;52474;52.236;5.114;2024-02-21T08:20:31;101668.41;;;9.11;100.00
59170;BME280;52474;52.236;5.114;2024-02-21T08:22:56;101660.28;;;9.14;100.00
59170;BME280;52474;52.236;5.114;2024-02-21T08:25:22;101642.06;;;9.09;100.00
59170;BME280;52474;52.236;5.114;2024-02-21T08:27:48;101626.19;;;8.96;100.00
59170;BME280;52474;52.236;5.114;2024-02-21T08:30:14;101656.44;;;9.05;100.00
59170;BME280;52474;52.236;5.114;2024-02-21T08:32:39;101641.63;;;9.02;100.00
59170;BME280;52474;52.236;5.114;2024-02-21T08:35:05;101619.66;;;9.02;100.00
59170;BME280;52474;52.236;5.114;2024-02-21T08:37:31;101641.97;;;9.11;100.00
59170;BME280;52474;52.236;5.114;2024-02-21T08:39:57;101630.97;;;9.04;100.00
59170;BME280;52474;52.236;5.114;2024-02-21T08:42:23;101610.44;;;8.95;100.00
59170;BME280;52474;52.236;5.114;2024-02-21T08:44:48;101615.66;;;9.09;100.00
59170;BME280;52474;52.236;5.114;2024-02-21T08:47:14;101615.84;;;9.06;100.00
59170;BME280;52474;52.236;5.114;2024-02-21T08:49:40;101599.78;;;9.09;100.00
59170;BME280;52474;52.236;5.114;2024-02-21T08:52:06;101624.13;;;9.27;100.00
59170;BME280;52474;52.236;5.114;2024-02-21T08:54:34;101603.59;;;9.18;100.00
59170;BME280;52474;52.236;5.114;2024-02-21T08:57:00;101605.81;;;9.11;100.00
59170;BME280;52474;52.236;5.114;2024-02-21T08:59:25;101614.72;;;9.23;100.00
59170;BME280;52474;52.236;5.114;2024-02-21T09:01:52;101618.09;;;9.25;100.00
59170;BME280;52474;52.236;5.114;2024-02-21T09:04:20;101612.94;;;9.23;100.00
59170;BME280;52474;52.236;5.114;2024-02-21T09:06:46;101606.25;;;9.18;100.00
59170;BME280;52474;52.236;5.114;2024-02-21T09:09:12;101608.41;;;9.26;100.00
59170;BME280;52474;52.236;5.114;2024-02-21T09:11:38;101590.72;;;9.26;100.00
59170;BME280;52474;52.236;5.114;2024-02-21T09:14:03;101593.47;;;9.24;100.00
59170;BME280;52474;52.236;5.114;2024-02-21T09:16:32;101577.91;;;9.20;100.00
59170;BME280;52474;52.236;5.114;2024-02-21T09:18:58;101581.41;;;9.20;100.00
59170;BME280;52474;52.236;5.114;2024-02-21T09:21:24;101571.59;;;9.35;100.00
59170;BME280;52474;52.236;5.114;2024-02-21T09:23:49;101571.16;;;9.54;100.00
59170;BME280;52474;52.236;5.114;2024-02-21T09:26:15;101561.13;;;9.46;100.00
59170;BME280;52474;52.236;5.114;2024-02-21T09:28:42;101568.53;;;9.41;100.00
59170;BME280;52474;52.236;5.114;2024-02-21T09:31:08;101567.78;;;9.27;100.00
59170;BME280;52474;52.236;5.114;2024-02-21T09:33:34;101541.66;;;9.09;100.00
59170;BME280;52474;52.236;5.114;2024-02-21T09:36:09;101552.31;;;9.20;100.00
59170;BME280;52474;52.236;5.114;2024-02-21T09:38:36;101524.44;;;9.16;100.00
59170;BME280;52474;52.236;5.114;2024-02-21T09:41:19;101544.84;;;9.27;100.00
59170;BME280;52474;52.236;5.114;2024-02-21T09:43:46;101521.69;;;9.31;100.00
59170;BME280;52474;52.236;5.114;2024-02-21T09:46:16;101508.56;;;9.29;100.00
59170;BME280;52474;52.236;5.114;2024-02-21T09:49:37;101487.22;;;9.32;100.00
59170;BME280;52474;52.236;5.114;2024-02-21T09:51:38;101499.03;;;9.39;100.00
59170;BME280;52474;52.236;5.114;2024-02-21T09:54:07;101481.19;;;9.43;100.00
59170;BME280;52474;52.236;5.114;2024-02-21T09:56:33;101489.38;;;9.64;100.00
59170;BME280;52474;52.236;5.114;2024-02-21T09:58:59;101467.84;;;9.44;100.00
59170;BME280;52474;52.236;5.114;2024-02-21T10:01:26;101475.41;;;9.62;100.00
59170;BME280;52474;52.236;5.114;2024-02-21T10:03:51;101466.03;;;9.58;100.00
59170;BME280;52474;52.236;5.114;2024-02-21T10:06:17;101462.69;;;9.43;100.00
59170;BME280;52474;52.236;5.114;2024-02-21T10:08:42;101451.28;;;9.66;100.00
59170;BME280;52474;52.236;5.114;2024-02-21T10:11:08;101435.69;;;9.51;100.00
59170;BME280;52474;52.236;5.114;2024-02-21T10:13:35;101441.41;;;9.44;100.00
59170;BME280;52474;52.236;5.114;2024-02-21T10:16:05;101457.78;;;9.86;100.00
59170;BME280;52474;52.236;5.114;2024-02-21T10:18:36;101449.19;;;9.96;100.00
59170;BME280;52474;52.236;5.114;2024-02-21T10:21:10;101416.47;;;9.73;100.00
59170;BME280;52474;52.236;5.114;2024-02-21T10:23:49;101402.72;;;10.16;100.00
59170;BME280;52474;52.236;5.114;2024-02-21T10:26:17;101436.78;;;10.20;100.00
59170;BME280;52474;52.236;5.114;2024-02-21T12:27:48;101150.22;;;10.41;100.00
59170;BME280;52474;52.236;5.114;2024-02-21T12:30:17;101121.69;;;10.44;100.00
59170;BME280;52474;52.236;5.114;2024-02-21T12:32:43;101129.28;;;10.26;100.00
59170;BME280;52474;52.236;5.114;2024-02-21T12:35:09;101130.84;;;10.51;100.00
59170;BME280;52474;52.236;5.114;2024-02-21T12:37:35;101124.31;;;10.56;100.00
59170;BME280;52474;52.236;5.114;2024-02-21T12:40:00;101120.34;;;10.61;100.00
59170;BME280;52474;52.236;5.114;2024-02-21T12:42:26;101100.00;;;10.50;100.00
59170;BME280;52474;52.236;5.114;2024-02-21T12:44:54;101086.31;;;10.78;100.00
59170;BME280;52474;52.236;5.114;2024-02-21T12:47:19;101067.44;;;10.71;100.00
59170;BME280;52474;52.236;5.114;2024-02-21T12:49:49;101077.34;;;10.58;100.00
59170;BME280;52474;52.236;5.114;2024-02-21T12:52:14;101065.09;;;10.45;100.00
59170;BME280;52474;52.236;5.114;2024-02-21T12:54:40;101070.47;;;10.34;100.00
59170;BME280;52474;52.236;5.114;2024-02-21T12:57:08;101052.88;;;10.22;100.00
59170;BME280;52474;52.236;5.114;2024-02-21T12:59:33;101052.38;;;10.39;100.00
59170;BME280;52474;52.236;5.114;2024-02-21T13:01:59;101037.81;;;10.45;100.00
59170;BME280;52474;52.236;5.114;2024-02-21T13:04:25;101011.53;;;10.09;100.00
59170;BME280;52474;52.236;5.114;2024-02-21T13:06:51;101035.06;;;10.35;100.00
59170;BME280;52474;52.236;5.114;2024-02-21T13:09:17;101024.84;;;10.30;100.00
59170;BME280;52474;52.236;5.114;2024-02-21T13:11:43;100998.28;;;10.09;100.00
59170;BME280;52474;52.236;5.114;2024-02-21T13:14:12;101029.13;;;10.43;100.00
59170;BME280;52474;52.236;5.114;2024-02-21T13:16:38;101015.22;;;10.29;100.00
59170;BME280;52474;52.236;5.114;2024-02-21T13:19:07;101011.34;;;10.34;100.00
59170;BME280;52474;52.236;5.114;2024-02-21T13:21:36;101001.84;;;10.31;100.00
59170;BME280;52474;52.236;5.114;2024-02-21T13:24:02;100989.69;;;10.40;100.00
59170;BME280;52474;52.236;5.114;2024-02-21T13:26:27;100989.09;;;10.36;100.00
59170;BME280;52474;52.236;5.114;2024-02-21T13:28:53;100977.44;;;10.16;100.00
59170;BME280;52474;52.236;5.114;2024-02-21T13:31:20;100975.44;;;10.08;100.00
59170;BME280;52474;52.236;5.114;2024-02-21T13:33:45;100965.22;;;10.04;100.00
59170;BME280;52474;52.236;5.114;2024-02-21T13:36:11;100962.81;;;10.01;100.00
59170;BME280;52474;52.236;5.114;2024-02-21T13:38:38;100961.06;;;9.90;100.00
59170;BME280;52474;52.236;5.114;2024-02-21T13:41:06;100940.38;;;9.84;100.00
59170;BME280;52474;52.236;5.114;2024-02-21T13:43:33;100938.69;;;9.83;100.00
59170;BME280;52474;52.236;5.114;2024-02-21T13:46:00;100938.19;;;9.89;100.00
59170;BME280;52474;52.236;5.114;2024-02-21T13:48:28;100925.94;;;9.88;100.00
59170;BME280;52474;52.236;5.114;2024-02-21T13:50:54;100918.97;;;9.87;100.00
59170;BME280;52474;52.236;5.114;2024-02-21T13:53:20;100913.91;;;9.84;100.00
59170;BME280;52474;52.236;5.114;2024-02-21T13:55:48;100909.59;;;9.83;100.00
59170;BME280;52474;52.236;5.114;2024-02-21T13:58:15;100899.28;;;9.80;100.00
59170;BME280;52474;52.236;5.114;2024-02-21T14:00:41;100895.19;;;9.87;100.00
59170;BME280;52474;52.236;5.114;2024-02-21T14:03:07;100891.28;;;9.91;100.00
59170;BME280;52474;52.236;5.114;2024-02-21T14:05:32;100869.56;;;9.87;100.00
59170;BME280;52474;52.236;5.114;2024-02-21T14:07:58;100861.28;;;9.81;100.00
59170;BME280;52474;52.236;5.114;2024-02-21T14:10:24;100841.50;;;9.96;100.00
59170;BME280;52474;52.236;5.114;2024-02-21T14:12:49;100834.44;;;9.85;100.00
59170;BME280;52474;52.236;5.114;2024-02-21T14:15:15;100815.59;;;9.79;100.00
59170;BME280;52474;52.236;5.114;2024-02-21T14:17:44;100811.13;;;9.79;100.00
59170;BME280;52474;52.236;5.114;2024-02-21T14:20:10;100794.88;;;9.84;100.00
59170;BME280;52474;52.236;5.114;2024-02-21T14:22:35;100781.81;;;9.82;100.00
59170;BME280;52474;52.236;5.114;2024-02-21T14:25:03;100792.78;;;9.78;100.00
59170;BME280;52474;52.236;5.114;2024-02-21T14:27:32;100767.19;;;9.67;100.00
59170;BME280;52474;52.236;5.114;2024-02-21T14:29:58;100755.47;;;9.60;100.00
59170;BME280;52474;52.236;5.114;2024-02-21T14:32:23;100750.38;;;9.68;100.00
59170;BME280;52474;52.236;5.114;2024-02-21T14:34:49;100743.09;;;9.60;100.00
59170;BME280;52474;52.236;5.114;2024-02-21T14:37:15;100734.25;;;9.71;100.00
59170;BME280;52474;52.236;5.114;2024-02-21T14:39:41;100725.88;;;9.66;100.00
59170;BME280;52474;52.236;5.114;2024-02-21T14:42:07;100719.16;;;9.62;100.00
59170;BME280;52474;52.236;5.114;2024-02-21T14:44:35;100717.41;;;9.51;100.00
59170;BME280;52474;52.236;5.114;2024-02-21T14:47:02;100717.59;;;9.59;100.00